createdAt,value
2017-10-16T00:00:22.992Z,17.87
2017-10-16T00:02:48.940Z,16.77
2017-10-16T00:05:15.631Z,17.57
2017-10-16T00:07:41.626Z,17.67
2017-10-16T00:10:07.592Z,17.90
2017-10-16T00:12:34.292Z,17.47
2017-10-16T00:15:00.273Z,17.30
2017-10-16T00:17:26.217Z,16.30
2017-10-16T00:19:52.919Z,17.70
2017-10-16T00:22:18.894Z,19.53
2017-10-16T00:24:44.872Z,18.63
2017-10-16T00:27:11.568Z,18.43
2017-10-16T00:29:37.548Z,16.77
2017-10-16T00:32:03.537Z,18.77
2017-10-16T00:34:29.485Z,20.27
2017-10-16T00:36:55.490Z,16.90
2017-10-16T00:39:21.437Z,16.97
2017-10-16T00:41:47.397Z,19.47
2017-10-16T00:44:13.381Z,19.03
2017-10-16T00:46:39.321Z,18.60
2017-10-16T00:49:05.285Z,18.67
2017-10-16T00:51:31.274Z,17.20
2017-10-16T00:53:57.219Z,16.67
2017-10-16T00:56:23.185Z,18.20
2017-10-16T00:58:49.161Z,17.93
2017-10-16T01:01:15.129Z,17.30
2017-10-16T01:03:41.074Z,19.57
2017-10-16T01:06:07.042Z,19.43
2017-10-16T01:08:32.976Z,21.27
2017-10-16T01:10:58.959Z,18.20
2017-10-16T01:13:24.901Z,19.03
2017-10-16T01:15:50.833Z,19.80
2017-10-16T01:18:17.545Z,18.67
2017-10-16T01:20:44.232Z,19.00
2017-10-16T01:23:10.203Z,17.40
2017-10-16T01:25:36.877Z,17.30
2017-10-16T01:28:02.861Z,18.57
2017-10-16T01:30:28.801Z,17.37
2017-10-16T01:32:54.757Z,17.43
2017-10-16T01:35:21.472Z,18.57
2017-10-16T01:37:47.417Z,18.47
2017-10-16T01:40:13.360Z,19.07
2017-10-16T01:42:39.336Z,18.43
2017-10-16T01:45:05.273Z,18.23
2017-10-16T01:47:31.205Z,18.33
2017-10-16T01:49:57.181Z,17.63
2017-10-16T01:52:23.121Z,17.83
2017-10-16T01:54:49.053Z,17.80
2017-10-16T01:57:15.053Z,18.23
2017-10-16T01:59:41.765Z,19.93
2017-10-16T02:02:07.714Z,18.20
2017-10-16T02:04:33.730Z,17.73
2017-10-16T02:06:59.701Z,18.30
2017-10-16T02:09:26.378Z,18.90
2017-10-16T02:11:52.358Z,18.30
2017-10-16T02:14:18.344Z,17.47
2017-10-16T02:16:45.032Z,19.00
2017-10-16T02:19:11.009Z,18.30
2017-10-16T02:21:36.949Z,20.20
2017-10-16T02:24:02.937Z,19.27
2017-10-16T02:26:28.881Z,18.20
2017-10-16T02:28:54.816Z,20.03
2017-10-16T02:31:20.804Z,20.40
2017-10-16T02:33:47.502Z,20.17
2017-10-16T02:36:13.453Z,21.40
2017-10-16T02:38:40.177Z,18.70
2017-10-16T02:41:06.989Z,21.03
2017-10-16T02:43:32.959Z,19.10
2017-10-16T02:45:58.905Z,19.73
2017-10-16T02:48:25.637Z,19.00
2017-10-16T02:50:52.369Z,19.30
2017-10-16T02:53:19.090Z,19.43
2017-10-16T02:55:45.816Z,21.90
2017-10-16T02:58:12.519Z,21.03
2017-10-16T03:00:38.501Z,18.87
2017-10-16T03:03:04.445Z,19.70
2017-10-16T03:05:30.473Z,19.57
2017-10-16T03:07:57.164Z,19.50
2017-10-16T03:10:23.128Z,19.07
2017-10-16T03:12:49.178Z,18.53
2017-10-16T03:15:15.141Z,20.50
2017-10-16T03:17:41.920Z,19.93
2017-10-16T03:20:07.910Z,21.70
2017-10-16T03:22:33.848Z,20.40
2017-10-16T03:24:59.824Z,20.60
2017-10-16T03:27:25.766Z,19.53
2017-10-16T03:29:51.723Z,19.53
2017-10-16T03:32:17.714Z,21.57
2017-10-16T03:34:44.421Z,21.23
2017-10-16T03:37:10.374Z,20.33
2017-10-16T03:39:36.365Z,21.10
2017-10-16T03:42:02.421Z,19.80
2017-10-16T03:44:28.376Z,22.33
2017-10-16T03:46:54.376Z,21.77
2017-10-16T03:49:20.334Z,21.20
2017-10-16T03:51:46.293Z,20.87
2017-10-16T03:54:12.264Z,21.60
2017-10-16T03:56:38.237Z,22.07
2017-10-16T03:59:04.953Z,23.67
2017-10-16T04:01:30.901Z,23.20
2017-10-16T04:03:56.885Z,23.00
2017-10-16T04:06:22.833Z,22.30
2017-10-16T04:08:49.553Z,35.17
2017-10-16T04:11:15.526Z,39.67
2017-10-16T04:13:41.481Z,41.57
2017-10-16T04:16:08.217Z,57.27
2017-10-16T04:18:34.161Z,84.07
2017-10-16T04:21:00.113Z,56.87
2017-10-16T04:23:26.838Z,41.30
2017-10-16T04:25:53.546Z,43.00
2017-10-16T04:28:19.527Z,48.50
2017-10-16T04:30:45.477Z,51.73
2017-10-16T04:33:12.194Z,40.03
2017-10-16T04:35:38.181Z,42.60
2017-10-16T04:38:04.166Z,45.70
2017-10-16T04:40:30.106Z,39.37
2017-10-16T04:42:56.061Z,32.03
2017-10-16T04:45:22.058Z,27.47
2017-10-16T04:47:48.752Z,26.27
2017-10-16T04:50:14.751Z,26.50
2017-10-16T04:52:40.693Z,25.87
2017-10-16T04:55:07.386Z,24.63
2017-10-16T04:57:33.357Z,26.83
2017-10-16T05:00:00.056Z,26.97
2017-10-16T05:02:26.057Z,26.57
2017-10-16T05:04:52.746Z,25.87
2017-10-16T05:07:18.725Z,25.20
2017-10-16T05:09:44.701Z,24.63
2017-10-16T05:12:11.445Z,24.83
2017-10-16T05:14:37.437Z,23.53
2017-10-16T05:17:04.122Z,25.77
2017-10-16T05:19:30.065Z,25.10
2017-10-16T05:22:03.920Z,25.07
2017-10-16T05:24:29.876Z,25.53
2017-10-16T05:26:55.890Z,25.47
2017-10-16T05:29:21.922Z,24.87
2017-10-16T05:31:47.861Z,22.30
2017-10-16T05:34:13.841Z,24.17
2017-10-16T05:36:39.812Z,24.87
2017-10-16T05:39:06.489Z,25.67
2017-10-16T05:41:32.580Z,23.40
2017-10-16T05:43:58.539Z,23.07
2017-10-16T05:46:24.503Z,21.90
2017-10-16T05:48:50.487Z,23.37
2017-10-16T05:51:16.421Z,22.63
2017-10-16T05:53:42.385Z,22.47
2017-10-16T05:56:09.098Z,21.87
2017-10-16T05:58:35.040Z,23.87
2017-10-16T06:01:00.993Z,23.93
2017-10-16T06:03:26.973Z,22.17
2017-10-16T06:05:52.953Z,23.67
2017-10-16T06:08:19.638Z,24.40
2017-10-16T06:10:45.606Z,24.27
2017-10-16T06:13:11.544Z,23.77
2017-10-16T06:15:37.526Z,23.83
2017-10-16T06:18:03.501Z,23.43
2017-10-16T06:20:30.226Z,25.00
2017-10-16T06:22:56.917Z,24.37
2017-10-16T06:25:22.937Z,27.00
2017-10-16T06:27:48.884Z,26.37
2017-10-16T06:30:14.845Z,24.17
2017-10-16T06:32:41.557Z,25.17
2017-10-16T06:35:07.523Z,25.07
2017-10-16T06:37:33.501Z,26.70
2017-10-16T06:39:59.450Z,27.37
2017-10-16T06:42:25.429Z,27.37
2017-10-16T06:44:51.391Z,26.40
2017-10-16T06:47:17.337Z,27.23
2017-10-16T06:49:44.044Z,28.07
2017-10-16T06:52:10.725Z,29.40
2017-10-16T06:54:36.727Z,28.10
2017-10-16T06:57:02.691Z,31.00
2017-10-16T06:59:29.408Z,29.53
2017-10-16T07:01:55.414Z,29.27
2017-10-16T07:04:21.361Z,31.80
2017-10-16T07:06:47.313Z,31.50
2017-10-16T07:09:13.289Z,28.67
2017-10-16T07:11:39.277Z,28.33
2017-10-16T07:14:05.265Z,27.10
2017-10-16T07:16:31.965Z,28.53
2017-10-16T07:18:57.957Z,29.27
2017-10-16T07:21:23.902Z,30.40
2017-10-16T07:23:50.614Z,29.57
2017-10-16T07:26:16.565Z,27.67
2017-10-16T07:28:42.545Z,29.60
2017-10-16T07:31:09.229Z,32.13
2017-10-16T07:33:35.217Z,30.13
2017-10-16T07:36:01.228Z,31.00
2017-10-16T07:38:27.205Z,30.83
2017-10-16T07:40:53.193Z,32.47
2017-10-16T07:43:26.073Z,31.47
2017-10-16T07:45:52.073Z,30.83
2017-10-16T07:48:18.013Z,30.37
2017-10-16T07:50:43.952Z,28.30
2017-10-16T07:53:09.924Z,26.30
2017-10-16T07:55:35.905Z,26.40
2017-10-16T07:58:01.922Z,29.50
2017-10-16T08:00:27.861Z,28.00
2017-10-16T08:02:53.818Z,28.97
2017-10-16T08:05:20.549Z,28.73
2017-10-16T08:07:46.502Z,27.60
2017-10-16T08:10:12.481Z,26.10
2017-10-16T08:12:38.421Z,25.27
2017-10-16T08:15:04.425Z,24.70
2017-10-16T08:17:30.373Z,26.50
2017-10-16T08:19:57.061Z,24.93
2017-10-16T08:22:23.029Z,25.37
2017-10-16T08:24:49.019Z,24.30
2017-10-16T08:27:15.693Z,23.47
2017-10-16T08:29:41.626Z,24.87
2017-10-16T08:32:07.610Z,23.50
2017-10-16T08:34:34.296Z,21.30
2017-10-16T08:37:00.265Z,23.33
2017-10-16T08:39:26.262Z,23.37
2017-10-16T08:41:52.197Z,21.50
2017-10-16T08:44:18.166Z,21.70
2017-10-16T08:46:44.857Z,20.50
2017-10-16T08:49:10.830Z,20.97
2017-10-16T08:51:36.817Z,20.00
2017-10-16T08:54:02.774Z,19.10
2017-10-16T08:56:28.719Z,19.20
2017-10-16T08:58:55.453Z,20.07
2017-10-16T09:01:22.133Z,18.77
2017-10-16T09:03:48.096Z,18.47
2017-10-16T09:06:14.070Z,19.03
2017-10-16T09:08:40.014Z,17.80
2017-10-16T09:11:05.957Z,18.40
2017-10-16T09:13:31.932Z,18.33
2017-10-16T09:15:57.917Z,16.60
2017-10-16T09:18:24.594Z,18.07
2017-10-16T09:20:50.533Z,18.37
2017-10-16T09:23:16.525Z,18.33
2017-10-16T09:25:42.497Z,18.20
2017-10-16T09:28:08.444Z,15.40
2017-10-16T09:30:34.413Z,16.23
2017-10-16T09:33:00.387Z,17.20
2017-10-16T09:35:26.326Z,17.63
2017-10-16T09:37:52.277Z,17.80
2017-10-16T09:40:18.241Z,16.87
2017-10-16T09:42:44.226Z,18.17
2017-10-16T09:45:10.175Z,17.00
2017-10-16T09:47:36.859Z,18.80
2017-10-16T09:50:02.857Z,17.70
2017-10-16T09:52:28.795Z,16.73
2017-10-16T09:54:54.766Z,16.37
2017-10-16T09:57:20.740Z,14.97
2017-10-16T09:59:47.417Z,15.87
2017-10-16T10:02:13.388Z,15.67
2017-10-16T10:04:39.327Z,15.13
2017-10-16T10:07:05.334Z,15.57
2017-10-16T10:09:31.342Z,17.67
2017-10-16T10:11:57.282Z,17.93
2017-10-16T10:14:23.224Z,16.20
2017-10-16T10:16:49.209Z,16.30
2017-10-16T10:19:15.888Z,16.73
2017-10-16T10:21:41.837Z,15.77
2017-10-16T10:24:08.557Z,16.10
2017-10-16T10:26:34.670Z,16.50
2017-10-16T10:29:00.654Z,15.03
2017-10-16T10:31:26.617Z,15.47
2017-10-16T10:33:52.561Z,14.27
2017-10-16T10:36:18.534Z,14.30
2017-10-16T10:38:44.491Z,12.10
2017-10-16T10:41:10.471Z,12.30
2017-10-16T10:43:36.442Z,11.03
2017-10-16T10:46:02.402Z,12.07
2017-10-16T10:48:28.382Z,12.80
2017-10-16T10:50:54.333Z,12.27
2017-10-16T10:53:20.308Z,11.60
2017-10-16T10:55:46.276Z,9.53
2017-10-16T10:58:12.261Z,10.63
2017-10-16T11:00:38.198Z,10.37
2017-10-16T11:03:04.133Z,10.93
2017-10-16T11:05:30.140Z,10.87
2017-10-16T11:07:56.072Z,11.53
2017-10-16T11:10:22.013Z,10.30
2017-10-16T11:12:48.738Z,12.53
2017-10-16T11:15:15.445Z,11.30
2017-10-16T11:17:41.413Z,11.93
2017-10-16T11:20:07.402Z,10.67
2017-10-16T11:22:33.341Z,11.80
2017-10-16T11:24:59.325Z,11.13
2017-10-16T11:27:25.257Z,12.60
2017-10-16T11:29:51.184Z,11.40
2017-10-16T11:32:17.156Z,12.33
2017-10-16T11:34:43.106Z,12.30
2017-10-16T11:37:09.081Z,12.10
2017-10-16T11:39:35.021Z,11.33
2017-10-16T11:42:00.986Z,11.67
2017-10-16T11:44:26.953Z,11.70
2017-10-16T11:46:52.933Z,11.77
2017-10-16T11:49:19.646Z,11.07
2017-10-16T11:51:46.375Z,11.80
2017-10-16T11:54:13.049Z,10.93
2017-10-16T11:56:38.977Z,14.47
2017-10-16T11:59:04.963Z,11.70
2017-10-16T12:01:30.917Z,12.67
2017-10-16T12:03:57.601Z,12.17
2017-10-16T12:06:23.569Z,12.77
2017-10-16T12:08:49.505Z,11.93
2017-10-16T12:11:15.492Z,12.03
2017-10-16T12:13:41.428Z,12.80
2017-10-16T12:16:07.365Z,12.23
2017-10-16T12:18:33.348Z,12.40
2017-10-16T12:20:59.346Z,11.03
2017-10-16T12:23:25.299Z,10.70
2017-10-16T12:25:51.281Z,11.27
2017-10-16T12:28:17.216Z,11.97
2017-10-16T12:30:43.157Z,12.93
2017-10-16T12:33:09.885Z,12.40
2017-10-16T12:35:36.605Z,11.40
2017-10-16T12:38:03.306Z,10.43
2017-10-16T12:40:30.777Z,11.53
2017-10-16T12:42:57.461Z,10.73
2017-10-16T12:45:23.453Z,10.50
2017-10-16T12:47:49.459Z,10.43
2017-10-16T12:50:15.401Z,10.70
2017-10-16T12:52:41.377Z,10.50
2017-10-16T12:55:07.361Z,9.77
2017-10-16T12:57:33.353Z,10.03
2017-10-16T13:00:00.069Z,11.47
2017-10-16T13:02:27.532Z,9.57
2017-10-16T13:04:54.220Z,9.43
2017-10-16T13:07:20.157Z,10.60
2017-10-16T13:09:46.881Z,10.30
2017-10-16T13:12:13.575Z,9.73
2017-10-16T13:14:39.553Z,9.70
2017-10-16T13:17:05.538Z,9.80
2017-10-16T13:19:31.483Z,9.83
2017-10-16T13:21:57.470Z,9.43
2017-10-16T13:24:23.425Z,10.10
2017-10-16T13:26:49.397Z,10.27
2017-10-16T13:29:15.381Z,9.30
2017-10-16T13:31:41.323Z,9.30
2017-10-16T13:34:07.266Z,9.50
2017-10-16T13:36:33.244Z,9.90
2017-10-16T13:38:59.180Z,10.70
2017-10-16T13:41:26.637Z,9.17
2017-10-16T13:43:53.320Z,8.97
2017-10-16T13:46:19.349Z,10.27
2017-10-16T13:48:45.325Z,10.10
2017-10-16T13:51:11.265Z,8.87
2017-10-16T13:53:37.239Z,9.13
2017-10-16T13:56:03.177Z,9.10
2017-10-16T13:58:29.145Z,8.63
2017-10-16T14:00:55.121Z,9.03
2017-10-16T14:03:21.834Z,10.00
2017-10-16T14:05:47.809Z,9.30
2017-10-16T14:08:13.827Z,10.50
2017-10-16T14:10:39.776Z,10.17
2017-10-16T14:13:06.512Z,9.23
2017-10-16T14:15:33.190Z,8.87
2017-10-16T14:17:59.133Z,9.23
2017-10-16T14:20:25.126Z,9.97
2017-10-16T14:22:51.113Z,9.27
2017-10-16T14:25:21.773Z,9.80
2017-10-16T14:27:47.837Z,8.63
2017-10-16T14:30:14.509Z,10.30
2017-10-16T14:32:40.497Z,8.67
2017-10-16T14:35:06.429Z,8.93
2017-10-16T14:37:32.413Z,9.13
2017-10-16T14:39:58.381Z,8.80
2017-10-16T14:42:24.320Z,8.23
2017-10-16T14:44:50.289Z,9.27
2017-10-16T14:47:16.289Z,8.83
2017-10-16T14:49:42.293Z,9.47
2017-10-16T14:52:08.228Z,9.57
2017-10-16T14:54:34.910Z,9.40
2017-10-16T14:57:00.881Z,8.27
2017-10-16T14:59:26.813Z,8.93
2017-10-16T15:01:52.797Z,9.10
2017-10-16T15:04:18.737Z,8.60
2017-10-16T15:06:44.705Z,8.73
2017-10-16T15:09:10.701Z,8.67
2017-10-16T15:11:37.388Z,9.93
2017-10-16T15:14:03.366Z,9.43
2017-10-16T15:16:29.346Z,8.77
2017-10-16T15:18:56.031Z,9.40
2017-10-16T15:21:22.047Z,10.97
2017-10-16T15:23:48.034Z,9.87
2017-10-16T15:26:13.998Z,9.60
2017-10-16T15:28:39.998Z,10.20
2017-10-16T15:31:06.013Z,10.63
2017-10-16T15:33:32.697Z,8.57
2017-10-16T15:35:58.734Z,10.77
2017-10-16T15:38:25.413Z,11.17
2017-10-16T15:40:51.347Z,10.50
2017-10-16T15:43:17.321Z,10.50
2017-10-16T15:45:43.257Z,11.10
2017-10-16T15:48:09.201Z,9.83
2017-10-16T15:50:35.920Z,9.97
2017-10-16T15:53:02.630Z,11.03
2017-10-16T15:55:28.586Z,10.60
2017-10-16T15:57:54.566Z,9.60
2017-10-16T16:00:21.286Z,10.60
2017-10-16T16:02:47.961Z,11.20
2017-10-16T16:05:13.929Z,13.53
2017-10-16T16:07:39.917Z,11.83
2017-10-16T16:10:06.967Z,11.27
2017-10-16T16:12:33.664Z,12.00
2017-10-16T16:14:59.643Z,10.60
2017-10-16T16:17:25.582Z,12.27
2017-10-16T16:19:51.564Z,11.93
2017-10-16T16:22:17.508Z,11.03
2017-10-16T16:24:43.437Z,12.63
2017-10-16T16:27:09.401Z,12.03
2017-10-16T16:29:35.377Z,12.07
2017-10-16T16:32:01.309Z,11.97
2017-10-16T16:34:27.313Z,11.43
2017-10-16T16:36:53.249Z,12.20
2017-10-16T16:39:19.977Z,12.20
2017-10-16T16:41:46.761Z,13.10
2017-10-16T16:46:43.800Z,12.27
2017-10-16T16:49:10.226Z,12.63
2017-10-16T16:51:36.329Z,14.30
2017-10-16T16:54:02.550Z,13.03
2017-10-16T16:56:28.598Z,12.73
2017-10-16T16:58:55.570Z,13.27
2017-10-16T17:01:21.745Z,12.50
2017-10-16T17:03:48.481Z,14.17
2017-10-16T17:06:14.474Z,12.73
2017-10-16T17:08:41.179Z,13.47
2017-10-16T17:11:07.179Z,12.90
2017-10-16T17:13:33.125Z,11.90
2017-10-16T17:15:59.870Z,12.60
2017-10-16T17:18:25.820Z,13.00
2017-10-16T17:20:51.765Z,12.07
2017-10-16T17:23:18.494Z,13.00
2017-10-16T17:25:44.501Z,13.87
2017-10-16T17:28:11.296Z,13.27
2017-10-16T17:30:38.070Z,12.63
2017-10-16T17:33:04.085Z,13.80
2017-10-16T17:35:30.082Z,13.17
2017-10-16T17:37:56.061Z,12.80
2017-10-16T17:40:22.001Z,14.30
2017-10-16T17:42:48.005Z,13.27
2017-10-16T17:45:13.968Z,14.60
2017-10-16T17:47:40.009Z,35.83
2017-10-16T17:50:06.689Z,20.60
2017-10-16T17:52:32.636Z,22.03
2017-10-16T17:54:59.357Z,16.63
2017-10-16T17:57:25.332Z,15.27
2017-10-16T17:59:51.308Z,17.53
2017-10-16T18:02:17.241Z,15.40
2017-10-16T18:04:43.216Z,18.33
2017-10-16T18:07:09.300Z,15.40
2017-10-16T18:09:36.057Z,23.93
2017-10-16T18:12:02.069Z,22.40
2017-10-16T18:14:28.065Z,20.57
2017-10-16T18:16:54.777Z,16.43
2017-10-16T18:19:21.488Z,23.73
2017-10-16T18:21:47.428Z,19.50
2017-10-16T18:24:13.410Z,19.80
2017-10-16T18:26:40.255Z,19.57
2017-10-16T18:29:06.978Z,19.90
2017-10-16T18:31:33.694Z,18.53
2017-10-16T18:33:59.640Z,18.73
2017-10-16T18:36:25.625Z,22.17
2017-10-16T18:38:52.344Z,32.30
2017-10-16T18:41:18.288Z,30.70
2017-10-16T18:43:44.284Z,57.13
2017-10-16T18:46:10.267Z,45.57
2017-10-16T18:48:36.249Z,34.63
2017-10-16T18:51:02.249Z,24.03
2017-10-16T18:53:28.196Z,20.70
2017-10-16T18:55:54.208Z,22.10
2017-10-16T18:58:20.957Z,27.77
2017-10-16T19:00:46.921Z,22.53
2017-10-16T19:03:12.872Z,20.80
2017-10-16T19:05:38.872Z,21.03
2017-10-16T19:08:05.582Z,19.10
2017-10-16T19:10:32.405Z,19.93
2017-10-16T19:12:58.332Z,19.37
2017-10-16T19:15:25.065Z,19.00
2017-10-16T19:17:51.009Z,18.80
2017-10-16T19:20:16.954Z,19.93
2017-10-16T19:22:42.941Z,19.00
2017-10-16T19:25:08.923Z,18.53
2017-10-16T19:27:34.878Z,19.83
2017-10-16T19:30:00.853Z,18.93
2017-10-16T19:32:26.801Z,19.53
2017-10-16T19:34:52.731Z,21.50
2017-10-16T19:37:18.701Z,20.67
2017-10-16T19:39:44.645Z,21.17
2017-10-16T19:42:10.613Z,20.20
2017-10-16T19:44:36.616Z,22.00
2017-10-16T19:47:02.559Z,19.10
2017-10-16T19:49:28.505Z,19.90
2017-10-16T19:51:54.509Z,21.53
2017-10-16T19:54:20.446Z,20.57
2017-10-16T19:56:46.433Z,22.03
2017-10-16T19:59:12.381Z,22.20
2017-10-16T20:01:38.362Z,21.70
2017-10-16T20:04:04.359Z,20.37
2017-10-16T20:06:30.301Z,21.57
2017-10-16T20:08:56.276Z,19.60
2017-10-16T20:11:22.285Z,20.83
2017-10-16T20:13:48.224Z,19.70
2017-10-16T20:16:14.195Z,20.13
2017-10-16T20:18:40.171Z,18.57
2017-10-16T20:21:06.889Z,19.30
2017-10-16T20:23:33.617Z,20.57
2017-10-16T20:26:01.570Z,20.03
2017-10-16T20:28:28.285Z,22.00
2017-10-16T20:30:54.255Z,20.53
2017-10-16T20:33:20.225Z,20.27
2017-10-16T20:35:46.954Z,19.90
2017-10-16T20:38:12.941Z,20.03
2017-10-16T20:40:39.682Z,20.37
2017-10-16T20:43:06.404Z,20.17
2017-10-16T20:45:33.076Z,21.33
2017-10-16T20:47:59.009Z,18.77
2017-10-16T20:50:25.785Z,20.20
2017-10-16T20:52:51.722Z,19.60
2017-10-16T20:55:17.661Z,19.90
2017-10-16T20:57:43.654Z,18.70
2017-10-16T21:00:11.084Z,20.47
2017-10-16T21:02:37.130Z,18.57
2017-10-16T21:05:03.805Z,20.20
2017-10-16T21:07:29.789Z,19.23
2017-10-16T21:09:55.724Z,18.50
2017-10-16T21:12:21.671Z,18.97
2017-10-16T21:14:47.645Z,19.50
2017-10-16T21:17:13.626Z,19.23
2017-10-16T21:19:39.577Z,18.30
2017-10-16T21:22:05.541Z,19.70
2017-10-16T21:24:31.510Z,19.90
2017-10-16T21:26:57.478Z,20.30
2017-10-16T21:29:23.461Z,20.00
2017-10-16T21:31:49.400Z,19.70
2017-10-16T21:34:15.386Z,20.43
2017-10-16T21:36:41.434Z,19.57
2017-10-16T21:39:07.378Z,18.70
2017-10-16T21:41:34.061Z,19.60
2017-10-16T21:44:00.036Z,20.70
2017-10-16T21:46:25.972Z,18.43
2017-10-16T21:48:51.952Z,18.57
2017-10-16T21:51:17.957Z,19.50
2017-10-16T21:53:43.917Z,19.10
2017-10-16T21:56:09.937Z,19.83
2017-10-16T21:58:35.874Z,20.77
2017-10-16T22:01:01.836Z,20.13
2017-10-16T22:03:27.782Z,20.73
2017-10-16T22:05:53.764Z,19.73
2017-10-16T22:08:19.737Z,21.37
2017-10-16T22:10:45.735Z,18.60
2017-10-16T22:13:11.690Z,20.53
2017-10-16T22:15:37.629Z,22.40
2017-10-16T22:18:03.601Z,21.37
2017-10-16T22:20:29.537Z,20.90
2017-10-16T22:22:56.253Z,21.10
2017-10-16T22:25:22.933Z,19.33
2017-10-16T22:27:48.868Z,22.00
2017-10-16T22:30:14.857Z,23.00
2017-10-16T22:32:40.844Z,21.63
2017-10-16T22:35:09.628Z,21.63
2017-10-16T22:37:35.572Z,20.40
2017-10-16T22:40:01.514Z,23.13
2017-10-16T22:42:27.489Z,21.33
2017-10-16T22:44:53.437Z,21.90
2017-10-16T22:47:20.426Z,21.27
2017-10-16T22:49:46.365Z,21.83
2017-10-16T22:52:12.349Z,21.20
2017-10-16T22:54:44.141Z,20.47
2017-10-16T22:57:10.106Z,19.93
2017-10-16T22:59:36.817Z,20.77
2017-10-16T23:02:02.752Z,20.90
2017-10-16T23:04:29.473Z,22.07
2017-10-16T23:06:56.154Z,20.70
2017-10-16T23:09:22.098Z,19.90
2017-10-16T23:11:48.825Z,21.70
2017-10-16T23:14:15.518Z,21.40
2017-10-16T23:16:41.484Z,20.10
2017-10-16T23:19:07.453Z,20.13
2017-10-16T23:21:33.514Z,20.90
2017-10-16T23:23:59.449Z,22.00
2017-10-16T23:26:25.413Z,20.83
2017-10-16T23:28:51.384Z,21.37
2017-10-16T23:31:17.313Z,20.80
2017-10-16T23:33:44.014Z,21.40
2017-10-16T23:36:10.019Z,21.07
2017-10-16T23:38:35.953Z,23.47
2017-10-16T23:41:02.627Z,21.43
2017-10-16T23:43:28.592Z,18.87
2017-10-16T23:45:55.264Z,21.00
2017-10-16T23:48:21.239Z,19.93
2017-10-16T23:50:47.198Z,21.20
2017-10-16T23:53:13.212Z,21.30
2017-10-16T23:55:39.208Z,20.23
2017-10-16T23:58:05.145Z,21.50
